createdAt,value
2018-03-29T00:02:27.173Z,69.27
2018-03-29T00:04:57.023Z,74.07
2018-03-29T00:07:26.163Z,74.30
2018-03-29T00:09:55.254Z,74.47
2018-03-29T00:12:24.492Z,73.80
2018-03-29T00:14:53.557Z,78.20
2018-03-29T00:17:22.649Z,82.83
2018-03-29T00:19:51.552Z,81.47
2018-03-29T00:22:21.652Z,86.30
2018-03-29T00:24:50.832Z,85.57
2018-03-29T00:27:20.091Z,83.80
2018-03-29T00:29:49.153Z,84.80
2018-03-29T00:32:18.358Z,86.80
2018-03-29T00:34:47.449Z,87.63
2018-03-29T00:37:16.451Z,90.33
2018-03-29T00:39:45.550Z,87.90
2018-03-29T00:42:14.679Z,88.07
2018-03-29T00:44:43.747Z,92.00
2018-03-29T00:47:12.879Z,94.40
2018-03-29T00:49:41.871Z,95.60
2018-03-29T00:52:10.968Z,95.67
2018-03-29T00:54:39.859Z,95.50
2018-03-29T00:57:08.955Z,94.97
2018-03-29T00:59:38.008Z,94.53
2018-03-29T01:02:07.963Z,94.03
2018-03-29T01:04:36.923Z,95.00
2018-03-29T01:07:06.786Z,95.43
2018-03-29T01:09:35.771Z,93.43
2018-03-29T01:12:04.758Z,94.57
2018-03-29T01:14:33.745Z,97.13
2018-03-29T01:17:03.770Z,101.13
2018-03-29T01:19:32.766Z,97.23
2018-03-29T01:22:02.041Z,103.57
2018-03-29T01:24:31.030Z,99.83
2018-03-29T01:27:00.230Z,100.10
2018-03-29T01:29:29.336Z,108.77
2018-03-29T01:31:59.347Z,106.67
2018-03-29T01:34:29.147Z,107.00
2018-03-29T01:36:58.379Z,102.83
2018-03-29T01:39:27.622Z,101.47
2018-03-29T01:41:56.896Z,100.73
2018-03-29T01:44:25.986Z,93.47
2018-03-29T01:46:55.162Z,97.17
2018-03-29T01:49:24.144Z,93.73
2018-03-29T01:51:53.382Z,97.53
2018-03-29T01:54:22.336Z,101.57
2018-03-29T01:56:51.506Z,107.63
2018-03-29T01:59:20.475Z,104.33
2018-03-29T02:01:49.633Z,106.10
2018-03-29T02:04:18.519Z,102.70
2018-03-29T02:06:48.556Z,109.47
2018-03-29T02:09:17.850Z,108.80
2018-03-29T02:11:47.077Z,108.20
2018-03-29T02:14:16.139Z,105.97
2018-03-29T02:16:45.246Z,106.30
2018-03-29T02:19:13.936Z,103.20
2018-03-29T02:21:43.186Z,105.80
2018-03-29T02:24:12.059Z,106.17
2018-03-29T02:26:41.178Z,103.90
2018-03-29T02:29:10.105Z,105.10
2018-03-29T02:31:39.223Z,97.43
2018-03-29T02:34:09.050Z,95.93
2018-03-29T02:36:38.830Z,93.90
2018-03-29T02:39:07.866Z,93.80
2018-03-29T02:41:36.929Z,93.97
2018-03-29T02:44:05.811Z,91.90
2018-03-29T02:46:34.818Z,92.30
2018-03-29T02:49:03.795Z,92.53
2018-03-29T02:51:32.772Z,93.17
2018-03-29T02:54:01.686Z,91.13
2018-03-29T02:56:30.749Z,94.23
2018-03-29T02:59:00.530Z,89.97
2018-03-29T03:01:29.636Z,85.60
2018-03-29T03:03:59.138Z,86.47
2018-03-29T03:06:29.127Z,82.50
2018-03-29T03:08:58.216Z,81.87
2018-03-29T03:11:27.564Z,82.80
2018-03-29T03:13:56.520Z,89.60
2018-03-29T03:16:25.755Z,82.93
2018-03-29T03:18:54.751Z,84.77
2018-03-29T03:21:23.941Z,87.60
2018-03-29T03:23:52.932Z,89.83
2018-03-29T03:26:22.954Z,89.00
2018-03-29T03:28:51.945Z,93.23
2018-03-29T03:31:21.123Z,85.83
2018-03-29T03:33:49.913Z,89.00
2018-03-29T03:36:19.121Z,86.60
2018-03-29T03:38:48.710Z,83.50
2018-03-29T03:41:18.734Z,85.47
2018-03-29T03:43:47.735Z,81.77
2018-03-29T03:46:16.930Z,82.10
2018-03-29T03:48:45.930Z,82.60
2018-03-29T03:51:14.917Z,79.87
2018-03-29T03:53:43.909Z,75.40
2018-03-29T03:56:13.117Z,78.90
2018-03-29T03:58:42.111Z,80.93
2018-03-29T04:01:11.342Z,79.30
2018-03-29T04:03:40.338Z,75.83
2018-03-29T04:06:09.707Z,71.20
2018-03-29T04:08:38.591Z,68.50
2018-03-29T04:11:07.715Z,68.80
2018-03-29T04:13:36.578Z,65.50
2018-03-29T04:16:06.530Z,67.47
2018-03-29T04:18:35.621Z,63.20
2018-03-29T04:21:04.804Z,59.50
2018-03-29T04:23:33.794Z,62.30
2018-03-29T04:26:03.873Z,53.23
2018-03-29T04:28:33.243Z,51.17
2018-03-29T04:31:03.029Z,48.80
2018-03-29T04:33:31.955Z,51.40
2018-03-29T04:36:01.050Z,48.17
2018-03-29T04:38:30.935Z,44.90
2018-03-29T04:41:00.141Z,49.13
2018-03-29T04:43:29.238Z,47.30
2018-03-29T04:45:58.151Z,46.13
2018-03-29T04:48:27.876Z,42.63
2018-03-29T04:50:56.931Z,42.73
2018-03-29T04:53:25.862Z,42.57
2018-03-29T04:55:54.850Z,42.17
2018-03-29T04:58:23.850Z,43.40
2018-03-29T05:00:52.871Z,43.03
2018-03-29T05:03:21.830Z,53.60
2018-03-29T05:05:51.932Z,44.93
2018-03-29T05:08:21.127Z,40.33
2018-03-29T05:10:50.256Z,38.80
2018-03-29T05:13:19.237Z,37.50
2018-03-29T05:15:49.257Z,39.30
2018-03-29T05:18:18.943Z,37.60
2018-03-29T05:20:47.998Z,34.30
2018-03-29T05:23:17.964Z,34.67
2018-03-29T05:25:47.162Z,35.03
2018-03-29T05:28:16.155Z,35.27
2018-03-29T05:30:45.394Z,33.23
2018-03-29T05:33:14.352Z,36.30
2018-03-29T05:35:43.477Z,33.10
2018-03-29T05:38:12.371Z,32.00
2018-03-29T05:40:41.571Z,32.30
2018-03-29T05:43:10.521Z,32.70
2018-03-29T05:45:39.763Z,33.00
2018-03-29T05:48:08.729Z,31.17
2018-03-29T05:50:37.950Z,28.90
2018-03-29T05:53:06.952Z,28.37
2018-03-29T05:55:36.112Z,28.67
2018-03-29T05:58:05.114Z,29.10
2018-03-29T06:00:34.061Z,28.30
2018-03-29T06:03:02.852Z,28.63
2018-03-29T06:05:32.882Z,29.10
2018-03-29T06:08:02.506Z,28.93
2018-03-29T06:10:31.726Z,29.93
2018-03-29T06:13:01.563Z,30.20
2018-03-29T06:15:33.485Z,31.80
2018-03-29T06:18:03.888Z,28.27
2018-03-29T06:20:33.155Z,29.33
2018-03-29T06:23:02.822Z,30.20
2018-03-29T06:25:32.859Z,29.27
2018-03-29T06:28:01.851Z,28.90
2018-03-29T06:30:31.931Z,29.20
2018-03-29T06:33:01.067Z,27.70
2018-03-29T06:35:30.295Z,27.00
2018-03-29T06:37:59.390Z,26.90
2018-03-29T06:40:28.568Z,26.50
2018-03-29T06:42:57.667Z,25.70
2018-03-29T06:45:27.788Z,25.27
2018-03-29T06:47:57.522Z,25.73
2018-03-29T06:50:26.419Z,26.77
2018-03-29T06:52:55.409Z,25.93
2018-03-29T06:55:25.428Z,23.63
2018-03-29T06:57:54.418Z,24.77
2018-03-29T07:00:23.694Z,24.67
2018-03-29T07:02:53.605Z,22.77
2018-03-29T07:05:22.905Z,24.67
2018-03-29T07:07:52.039Z,24.70
2018-03-29T07:10:21.309Z,22.23
2018-03-29T07:12:50.507Z,21.77
2018-03-29T07:15:19.611Z,21.37
2018-03-29T07:17:48.597Z,22.63
2018-03-29T07:20:17.689Z,23.97
2018-03-29T07:22:46.684Z,24.70
2018-03-29T07:25:16.706Z,25.50
2018-03-29T07:27:45.701Z,32.80
2018-03-29T07:30:14.931Z,34.93
2018-03-29T07:32:44.009Z,32.00
2018-03-29T07:35:13.093Z,31.27
2018-03-29T07:37:42.102Z,33.00
2018-03-29T07:40:11.185Z,35.40
2018-03-29T07:42:40.188Z,36.80
2018-03-29T07:45:09.423Z,39.77
2018-03-29T07:47:38.320Z,36.50
2018-03-29T07:50:07.506Z,38.53
2018-03-29T07:52:36.403Z,39.20
2018-03-29T07:55:05.525Z,36.13
2018-03-29T07:57:34.446Z,37.47
2018-03-29T08:00:03.528Z,37.03
2018-03-29T08:02:32.487Z,37.97
2018-03-29T08:05:01.608Z,36.00
2018-03-29T08:07:30.575Z,36.50
2018-03-29T08:09:59.708Z,36.37
2018-03-29T08:12:28.672Z,35.13
2018-03-29T08:14:57.925Z,35.23
2018-03-29T08:17:26.815Z,37.13
2018-03-29T08:19:56.847Z,38.90
2018-03-29T08:22:25.943Z,38.97
2018-03-29T08:24:54.942Z,38.40
2018-03-29T08:27:23.927Z,36.10
2018-03-29T08:29:52.927Z,36.70
2018-03-29T08:32:22.509Z,37.50
2018-03-29T08:34:52.113Z,34.43
2018-03-29T08:37:21.881Z,34.20
2018-03-29T08:39:50.992Z,34.00
2018-03-29T08:42:19.974Z,32.87
2018-03-29T08:44:49.147Z,32.83
2018-03-29T08:47:18.882Z,28.17
2018-03-29T08:49:48.159Z,28.43
2018-03-29T08:52:17.205Z,29.17
2018-03-29T08:54:46.245Z,27.93
2018-03-29T08:57:15.352Z,24.20
2018-03-29T08:59:44.565Z,24.43
2018-03-29T09:02:13.569Z,22.50
2018-03-29T09:04:42.707Z,21.53
2018-03-29T09:07:11.604Z,23.77
2018-03-29T09:09:40.698Z,25.60
2018-03-29T09:12:10.467Z,24.67
2018-03-29T09:14:39.568Z,25.53
2018-03-29T09:17:08.843Z,27.63
2018-03-29T09:19:38.069Z,29.07
2018-03-29T09:22:07.134Z,28.33
2018-03-29T09:24:37.807Z,28.10
2018-03-29T09:27:06.757Z,30.33
2018-03-29T09:29:35.990Z,32.03
2018-03-29T09:32:04.991Z,29.90
2018-03-29T09:34:34.191Z,31.10
2018-03-29T09:37:03.187Z,30.13
2018-03-29T09:39:32.310Z,30.17
2018-03-29T09:42:01.283Z,31.00
2018-03-29T09:44:30.407Z,30.00
2018-03-29T09:47:00.256Z,33.10
2018-03-29T09:49:29.553Z,32.73
2018-03-29T09:51:58.545Z,33.53
2018-03-29T09:54:27.850Z,33.10
2018-03-29T09:56:57.754Z,32.73
2018-03-29T09:59:27.755Z,34.23
2018-03-29T10:01:56.871Z,35.77
2018-03-29T10:04:26.570Z,34.30
2018-03-29T10:07:01.161Z,32.80
2018-03-29T10:09:30.477Z,33.87
2018-03-29T10:11:59.579Z,31.90
2018-03-29T10:14:28.850Z,30.30
2018-03-29T10:16:57.950Z,29.77
2018-03-29T10:19:27.222Z,31.83
2018-03-29T10:21:56.210Z,31.20
2018-03-29T10:24:25.364Z,30.77
2018-03-29T10:26:54.338Z,31.93
2018-03-29T10:29:23.467Z,34.53
2018-03-29T10:31:52.431Z,30.77
2018-03-29T10:34:21.560Z,31.43
2018-03-29T10:36:50.520Z,31.13
2018-03-29T10:39:19.610Z,32.73
2018-03-29T10:41:48.506Z,32.10
2018-03-29T10:44:17.590Z,30.37
2018-03-29T10:46:47.487Z,31.30
2018-03-29T10:49:17.262Z,30.80
2018-03-29T10:51:46.179Z,29.80
2018-03-29T10:54:15.241Z,31.07
2018-03-29T10:56:44.180Z,32.40
2018-03-29T10:59:13.279Z,33.40
2018-03-29T11:01:42.466Z,36.13
2018-03-29T11:04:11.471Z,33.23
2018-03-29T11:06:40.337Z,32.00
2018-03-29T11:09:10.384Z,35.07
2018-03-29T11:11:39.472Z,36.33
2018-03-29T11:14:08.686Z,35.90
2018-03-29T11:16:37.774Z,34.83
2018-03-29T11:19:06.984Z,32.43
2018-03-29T11:21:36.113Z,33.67
2018-03-29T11:24:05.235Z,34.83
2018-03-29T11:26:34.190Z,33.53
2018-03-29T11:29:03.318Z,35.93
2018-03-29T11:31:32.229Z,38.07
2018-03-29T11:34:02.279Z,37.60
2018-03-29T11:36:31.289Z,38.10
2018-03-29T11:39:01.082Z,38.40
2018-03-29T11:41:30.063Z,36.43
2018-03-29T11:43:59.080Z,34.87
2018-03-29T11:46:28.813Z,33.40
2018-03-29T11:48:58.086Z,33.97
2018-03-29T11:51:27.079Z,31.13
2018-03-29T11:53:56.274Z,30.00
2018-03-29T11:56:25.307Z,33.07
2018-03-29T11:58:54.493Z,29.93
2018-03-29T12:01:23.503Z,30.90
2018-03-29T12:03:52.589Z,32.30
2018-03-29T12:06:21.595Z,32.57
2018-03-29T12:08:50.682Z,31.77
2018-03-29T12:11:19.674Z,32.77
2018-03-29T12:13:48.697Z,32.07
2018-03-29T12:16:17.671Z,30.23
2018-03-29T12:18:46.707Z,31.80
2018-03-29T12:21:16.541Z,34.27
2018-03-29T12:23:46.000Z,33.20
2018-03-29T12:26:15.051Z,33.57
2018-03-29T12:28:44.201Z,34.93
2018-03-29T12:31:13.165Z,31.53
2018-03-29T12:33:42.374Z,33.63
2018-03-29T12:36:11.367Z,34.53
2018-03-29T12:38:40.387Z,35.40
2018-03-29T12:41:10.237Z,33.93
2018-03-29T12:43:39.546Z,33.30
2018-03-29T12:46:08.543Z,33.60
2018-03-29T12:48:37.761Z,37.40
2018-03-29T12:51:07.081Z,34.83
2018-03-29T12:53:36.143Z,35.77
2018-03-29T12:56:05.575Z,34.03
2018-03-29T12:58:34.430Z,33.70
2018-03-29T13:01:03.724Z,35.50
2018-03-29T13:03:32.934Z,35.40
2018-03-29T13:06:02.038Z,36.10
2018-03-29T13:08:31.339Z,36.00
2018-03-29T13:11:00.331Z,38.03
2018-03-29T13:13:29.630Z,37.47
2018-03-29T13:15:59.542Z,38.20
2018-03-29T13:18:28.774Z,40.37
2018-03-29T13:20:57.870Z,39.77
2018-03-29T13:23:27.655Z,41.77
2018-03-29T13:25:57.123Z,42.10
2018-03-29T13:28:26.390Z,39.73
2018-03-29T13:30:55.673Z,39.27
2018-03-29T13:33:24.894Z,40.00
2018-03-29T13:35:53.777Z,39.70
2018-03-29T13:38:22.892Z,36.90
2018-03-29T13:40:51.833Z,37.80
2018-03-29T13:43:21.216Z,36.70
2018-03-29T13:45:50.278Z,36.23
2018-03-29T13:48:21.694Z,35.80
2018-03-29T13:50:50.791Z,36.13
2018-03-29T13:53:20.094Z,35.10
2018-03-29T13:55:49.094Z,36.07
2018-03-29T13:58:18.292Z,36.97
2018-03-29T14:00:47.389Z,38.67
2018-03-29T14:03:16.519Z,39.60
2018-03-29T14:05:45.501Z,41.30
2018-03-29T14:08:15.522Z,40.20
2018-03-29T14:10:44.523Z,40.87
2018-03-29T14:13:13.899Z,40.10
2018-03-29T14:15:42.989Z,41.40
2018-03-29T14:18:12.151Z,40.93
2018-03-29T14:20:42.030Z,38.20
2018-03-29T14:23:11.746Z,41.20
2018-03-29T14:25:40.643Z,38.53
2018-03-29T14:28:09.804Z,38.93
2018-03-29T14:30:38.788Z,39.67
2018-03-29T14:33:07.795Z,38.93
2018-03-29T14:35:37.639Z,38.77
2018-03-29T14:38:06.805Z,35.77
2018-03-29T14:40:35.919Z,39.40
2018-03-29T14:43:05.211Z,40.00
2018-03-29T14:45:35.080Z,38.93
2018-03-29T14:48:04.875Z,41.00
2018-03-29T14:50:33.871Z,40.53
2018-03-29T14:53:02.994Z,40.63
2018-03-29T14:55:31.959Z,39.07
2018-03-29T14:58:01.330Z,39.17
2018-03-29T15:00:31.151Z,42.90
2018-03-29T15:03:00.851Z,43.03
2018-03-29T15:05:30.140Z,42.07
2018-03-29T15:07:59.349Z,41.73
2018-03-29T15:10:28.448Z,42.57
2018-03-29T15:12:57.745Z,42.27
2018-03-29T15:15:26.752Z,43.73
2018-03-29T15:17:56.056Z,43.60
2018-03-29T15:20:25.069Z,43.50
2018-03-29T15:22:54.193Z,46.20
2018-03-29T15:25:23.162Z,45.20
2018-03-29T15:27:52.130Z,43.73
2018-03-29T15:30:21.254Z,42.70
2018-03-29T15:32:50.286Z,40.83
2018-03-29T15:35:20.166Z,42.00
2018-03-29T15:37:49.258Z,44.93
2018-03-29T15:40:18.256Z,43.60
2018-03-29T15:42:47.526Z,44.43
2018-03-29T15:45:16.526Z,46.27
2018-03-29T15:47:45.723Z,43.93
2018-03-29T15:50:14.714Z,43.40
2018-03-29T15:52:43.947Z,46.70
2018-03-29T15:55:12.944Z,43.67
2018-03-29T15:57:42.066Z,47.97
2018-03-29T16:00:11.090Z,47.93
2018-03-29T16:02:40.168Z,46.27
2018-03-29T16:05:09.076Z,46.67
2018-03-29T16:07:38.146Z,47.70
2018-03-29T16:10:07.089Z,47.70
2018-03-29T16:12:36.204Z,50.53
2018-03-29T16:15:05.569Z,48.90
2018-03-29T16:17:34.883Z,50.53
2018-03-29T16:20:04.015Z,50.33
2018-03-29T16:22:33.003Z,50.53
2018-03-29T16:25:02.079Z,52.00
2018-03-29T16:27:31.379Z,49.43
2018-03-29T16:30:00.371Z,50.27
2018-03-29T16:32:29.858Z,48.60
2018-03-29T16:34:59.061Z,48.20
2018-03-29T16:37:28.370Z,51.27
2018-03-29T16:39:57.500Z,49.03
2018-03-29T16:42:27.413Z,46.17
2018-03-29T16:44:57.203Z,49.13
2018-03-29T16:47:26.394Z,50.50
2018-03-29T16:49:55.504Z,49.67
2018-03-29T16:52:24.639Z,52.33
2018-03-29T16:54:53.623Z,54.23
2018-03-29T16:57:22.646Z,51.10
2018-03-29T16:59:51.611Z,52.53
2018-03-29T17:02:20.625Z,46.73
2018-03-29T17:04:49.594Z,45.00
2018-03-29T17:07:18.628Z,45.90
2018-03-29T17:09:47.591Z,47.83
2018-03-29T17:12:16.690Z,47.93
2018-03-29T17:14:45.669Z,54.67
2018-03-29T17:17:15.691Z,54.90
2018-03-29T17:19:44.677Z,54.60
2018-03-29T17:22:13.958Z,52.70
2018-03-29T17:24:42.778Z,49.83
2018-03-29T17:27:12.059Z,48.10
2018-03-29T17:29:41.146Z,44.13
2018-03-29T17:32:10.355Z,41.73
2018-03-29T17:34:39.479Z,42.53
2018-03-29T17:37:08.508Z,40.53
2018-03-29T17:39:37.573Z,41.13
2018-03-29T17:42:06.596Z,41.47
2018-03-29T17:44:36.438Z,39.80
2018-03-29T17:47:05.652Z,38.77
2018-03-29T17:49:35.649Z,40.43
2018-03-29T17:52:05.099Z,41.60
2018-03-29T17:54:34.176Z,46.00
2018-03-29T17:57:03.467Z,43.53
2018-03-29T17:59:32.475Z,49.10
2018-03-29T18:02:01.603Z,47.10
2018-03-29T18:04:30.648Z,48.63
2018-03-29T18:06:59.754Z,47.60
2018-03-29T18:09:28.754Z,46.57
2018-03-29T18:11:57.703Z,47.73
2018-03-29T18:14:26.670Z,47.93
2018-03-29T18:16:55.691Z,47.30
2018-03-29T18:19:24.653Z,48.60
2018-03-29T18:21:53.850Z,49.77
2018-03-29T18:24:23.730Z,50.90
2018-03-29T18:26:52.963Z,49.20
2018-03-29T18:29:22.628Z,50.00
2018-03-29T18:31:52.562Z,47.87
2018-03-29T18:34:21.764Z,50.43
2018-03-29T18:36:51.883Z,50.47
2018-03-29T18:39:21.015Z,53.03
2018-03-29T18:41:50.280Z,49.07
2018-03-29T18:44:19.379Z,51.60
2018-03-29T18:46:48.377Z,48.87
2018-03-29T18:49:17.465Z,49.57
2018-03-29T18:51:46.603Z,52.70
2018-03-29T18:54:15.558Z,49.57
2018-03-29T18:56:44.760Z,52.07
2018-03-29T18:59:13.790Z,50.83
2018-03-29T19:01:42.887Z,49.83
2018-03-29T19:04:11.874Z,49.73
2018-03-29T19:06:41.763Z,50.00
2018-03-29T19:09:10.886Z,49.67
2018-03-29T19:11:40.171Z,52.27
2018-03-29T19:14:09.264Z,52.37
2018-03-29T19:16:39.332Z,52.87
2018-03-29T19:19:08.475Z,54.30
2018-03-29T19:21:37.500Z,54.90
2018-03-29T19:24:06.599Z,55.43
2018-03-29T19:26:35.771Z,56.53
2018-03-29T19:29:05.771Z,54.60
2018-03-29T19:31:35.091Z,56.00
2018-03-29T19:34:04.179Z,53.07
2018-03-29T19:36:33.485Z,51.10
2018-03-29T19:39:02.681Z,54.87
2018-03-29T19:41:31.951Z,51.87
2018-03-29T19:44:01.903Z,53.07
2018-03-29T19:46:31.125Z,55.17
2018-03-29T19:49:00.962Z,53.50
2018-03-29T19:51:30.010Z,53.83
2018-03-29T19:53:58.894Z,55.67
2018-03-29T19:56:27.905Z,54.30
2018-03-29T19:58:56.785Z,56.23
2018-03-29T20:01:25.851Z,55.47
2018-03-29T20:03:54.866Z,53.73
2018-03-29T20:06:24.826Z,53.93
2018-03-29T20:08:53.930Z,56.47
2018-03-29T20:11:23.308Z,54.90
2018-03-29T20:13:52.303Z,56.87
2018-03-29T20:16:21.459Z,58.17
2018-03-29T20:18:50.419Z,58.27
2018-03-29T20:21:19.542Z,56.07
2018-03-29T20:23:48.511Z,56.37
2018-03-29T20:26:17.630Z,57.17
2018-03-29T20:28:46.696Z,55.07
2018-03-29T20:31:15.817Z,59.10
2018-03-29T20:33:45.566Z,57.13
2018-03-29T20:36:14.781Z,56.53
2018-03-29T20:38:43.874Z,56.53
2018-03-29T20:41:13.074Z,56.57
2018-03-29T20:43:42.077Z,55.73
2018-03-29T20:46:11.303Z,55.20
2018-03-29T20:48:40.261Z,57.40
2018-03-29T20:51:09.427Z,57.47
2018-03-29T20:53:38.382Z,59.30
2018-03-29T20:56:07.478Z,61.97
2018-03-29T20:58:36.383Z,63.00
2018-03-29T21:01:05.508Z,63.90
2018-03-29T21:03:34.478Z,60.10
2018-03-29T21:06:03.475Z,59.67
2018-03-29T21:08:32.358Z,57.47
2018-03-29T21:11:01.554Z,58.20
2018-03-29T21:13:30.441Z,58.70
2018-03-29T21:15:59.642Z,60.00
2018-03-29T21:18:29.427Z,60.17
2018-03-29T21:20:58.545Z,62.30
2018-03-29T21:23:27.700Z,59.30
2018-03-29T21:25:56.926Z,62.00
2018-03-29T21:28:25.943Z,61.10
2018-03-29T21:30:55.223Z,65.03
2018-03-29T21:33:24.214Z,62.50
2018-03-29T21:35:53.414Z,65.40
2018-03-29T21:38:23.325Z,63.00
2018-03-29T21:40:53.169Z,65.60
2018-03-29T21:43:23.087Z,68.13
2018-03-29T21:45:52.267Z,67.20
2018-03-29T21:48:21.177Z,73.50
2018-03-29T21:50:50.354Z,72.10
2018-03-29T21:53:19.452Z,72.87
2018-03-29T21:55:48.532Z,73.93
2018-03-29T21:58:17.642Z,72.07
2018-03-29T22:00:46.739Z,74.57
2018-03-29T22:03:15.863Z,72.17
2018-03-29T22:05:44.853Z,68.17
2018-03-29T22:08:13.859Z,74.53
2018-03-29T22:10:43.080Z,72.13
2018-03-29T22:13:12.003Z,70.17
2018-03-29T22:15:41.050Z,77.50
2018-03-29T22:18:10.043Z,79.00
2018-03-29T22:20:39.171Z,73.63
2018-03-29T22:23:08.131Z,78.27
2018-03-29T22:25:37.230Z,76.70
2018-03-29T22:28:06.123Z,72.80
2018-03-29T22:30:35.179Z,71.23
2018-03-29T22:33:04.242Z,72.43
2018-03-29T22:35:34.421Z,71.20
2018-03-29T22:38:03.494Z,67.90
2018-03-29T22:40:32.703Z,67.40
2018-03-29T22:43:01.695Z,69.37
2018-03-29T22:45:30.922Z,67.40
2018-03-29T22:47:59.939Z,65.07
2018-03-29T22:50:29.012Z,63.90
2018-03-29T22:52:58.006Z,66.27
2018-03-29T22:55:27.003Z,63.00
2018-03-29T22:57:56.003Z,64.20
2018-03-29T23:00:38.231Z,65.30
2018-03-29T23:03:07.404Z,64.03
2018-03-29T23:05:36.562Z,63.60
2018-03-29T23:08:05.597Z,63.90
2018-03-29T23:10:35.853Z,62.47
2018-03-29T23:13:05.086Z,67.40
2018-03-29T23:15:34.285Z,66.33
2018-03-29T23:18:03.382Z,66.87
2018-03-29T23:20:32.383Z,66.67
2018-03-29T23:23:01.481Z,64.67
2018-03-29T23:25:30.470Z,68.43
2018-03-29T23:27:59.557Z,67.90
2018-03-29T23:30:28.708Z,68.50
2018-03-29T23:32:57.955Z,69.27
2018-03-29T23:35:26.917Z,64.13
2018-03-29T23:37:55.995Z,68.50
2018-03-29T23:40:25.038Z,69.27
2018-03-29T23:42:54.867Z,69.10
2018-03-29T23:45:24.057Z,72.27
2018-03-29T23:47:54.598Z,69.40
2018-03-29T23:50:23.785Z,74.00
2018-03-29T23:52:53.769Z,73.00
2018-03-29T23:55:23.662Z,71.90
2018-03-29T23:58:15.006Z,69.33
